LIBR/BDS METAR and TAF weather

Enter ICAO airport designator
Station Type Date Time Source
LIBR METAR 2021/01/27 13:20 UTC NOAA

LIBR 271320Z 31018KT 9999 BKN020 09/02 Q1014


Station Type Date Time Source
LIBR Decoded METAR 2021/01/27 13:20 UTC NOAA

Brindisi, Italy (LIBR) 40-39N 017-57E 10M
Jan 27, 2021 - 08:20 AM EST / 2021.01.27 1320 UTC
Wind: from the NW (310 degrees) at 21 MPH (18 KT):0
Visibility: greater than 7 mile(s):0
Sky conditions: mostly cloudy
Temperature: 48 F (9 C)
Dew Point: 35 F (2 C)
Relative Humidity: 61%
Pressure (altimeter): 29.94 in. Hg (1014 hPa)
ob: LIBR 271320Z 31018KT 9999 BKN020 09/02 Q1014
cycle: 13

Station Type Date Time Source
LIBR TAF 2021/01/27 12:24 UTC NOAA

TAF LIBR 271100Z 2712/2812 33015KT 9999 FEW030 PROB40
TEMPO 2712/2716 RA BKN014 PROB40
TEMPO 2804/2810 RA BKN014
BECMG 2806/2808 29005KT

Example: see airport list